الصفحة الرئيسية
METAR-TAF:

METAR-TAF

مطار :

Sakon Nakhon, تايلاند

دائرة عرض: 17-11-42N, خط طول: 104-07-08E, ارتفاع: 161 متر

مراقبة الطقس الحالي

تاريخ ووقت الإصدار 42 دقيقة قبل الساعة 08:00UTC
ريح 4 عقدة من الشرق/الجنوب الشرقي, الاتجاه يتراوح بين الشرق و الجنوب الشرقي
درجة الحرارة 31°درجة مئوية
الرطوبة 66%
ضغط 1008 hPa
الرؤية 10 كم أو أكثر
غيوم قليلة على ارتفاع 1500 قدم
غيوم مفككة على ارتفاع 3000 قدم

METAR: VTUI 260800Z 12004KT 080V140 9999 FEW015 BKN030 31/24 Q1008 NOSIG

زمن: 15:42 (08:42 UTC)

توقعات

تاريخ ووقت الإصدار 3ساعات و 42 دقيقة قبل الساعة 05:00UTC
التوقعات صالحة من26 الساعة 06 UTC إلى 27 الساعة 06 UTC
ريح 5 عقدة من الشرق/الجنوب الشرقي
الرؤية 10 كم أو أكثر
غيوم متفرقة على ارتفاع 3000 قدم
مؤقت
من 26 الساعة 07 UTC إلى 26 الساعة 13 UTC
ريح 15 عقدةمن اتجاهات متغيرة
الرؤية: 4000 متر
غيوم قليلة على ارتفاع 1800 قدم, مزنة ركامية.
غيوم مفككة على ارتفاع 2000 قدم
غيوم مفككة على ارتفاع 8000 قدم
عاصفة رعدية, مطر

TAF: VTUI 260500Z 2606/2706 11005KT 9999 SCT030 TEMPO 2607/2613 VRB15KT 4000 TSRA FEW018CB BKN020 BKN080

أرصاد الطقس والتوقعات من أكثر من 4000 مطار (تقارير الطقس للمطار METAR والتنبؤ بالطقس بالمطارTAF).

المحطات المتاحة هي النقط الصفراء والحمراء على الخريطة.

حرك المؤشر فوق النقطة لمعرفة اسم المحطة.

ثم انقر لمعرفة أرصاد وتوقعات الطقس.

لتغيير الخارطة: اضغط على الأزرار الخضراء مع رمز الصليب الأسود للتكبير. على الزر الأخضر مع شرطة للتصغير، أو على الأسهم الخضراء للخرائط المجاورة.


METAR-TAF: